Time;durP1;ratioP1;P1;durP2;ratioP2;P2;SDS_P1;SDS_P2;PMS_P1;PMS_P2;Temp;Humidity;BMP_temperature;BMP_pressure;BME280_temperature;BME280_humidity;BME280_pressure;Samples;Min_cycle;Max_cycle;Signal;HPM_P1;HPM_P2
2022/07/21 00:01:14;;;;;;;9.85;2.38;;;;;;;;;;5034929;28;20017;-70
2022/07/21 00:03:40;;;;;;;3.73;2.20;;;;;;;;;;5034838;28;20479;-71
2022/07/21 00:06:08;;;;;;;5.50;2.83;;;;;;;;;;5034810;28;20301;-71
2022/07/21 00:08:34;;;;;;;7.78;2.42;;;;;;;;;;5035092;28;20263;-71
2022/07/21 00:11:00;;;;;;;5.13;2.35;;;;;;;;;;5034628;28;20033;-70
2022/07/21 00:13:25;;;;;;;5.90;2.50;;;;;;;;;;5034780;28;20097;-70
2022/07/21 00:15:51;;;;;;;5.28;2.60;;;;;;;;;;5034724;28;20115;-71
2022/07/21 00:18:18;;;;;;;3.50;2.30;;;;;;;;;;5016794;28;20056;-70
2022/07/21 00:20:43;;;;;;;6.10;2.58;;;;;;;;;;5034477;28;20393;-70
2022/07/21 00:23:09;;;;;;;5.13;2.58;;;;;;;;;;5034447;28;20104;-70
2022/07/21 00:25:34;;;;;;;2.70;2.20;;;;;;;;;;5034466;28;20031;-70
2022/07/21 00:27:59;;;;;;;9.90;2.78;;;;;;;;;;5034366;28;20061;-70
2022/07/21 00:30:25;;;;;;;4.65;2.70;;;;;;;;;;5016508;28;20025;-71
2022/07/21 00:33:01;;;;;;;8.27;2.93;;;;;;;;;;5037577;28;20017;-83
2022/07/21 00:35:26;;;;;;;6.00;2.42;;;;;;;;;;5027742;28;20030;-83
2022/07/21 00:37:52;;;;;;;5.03;2.67;;;;;;;;;;5027440;28;20057;-83
2022/07/21 00:40:18;;;;;;;6.43;2.70;;;;;;;;;;5027470;28;20029;-83
2022/07/21 00:42:44;;;;;;;9.02;2.70;;;;;;;;;;5026567;28;20033;-82
2022/07/21 01:23:12;;;;;;;8.13;2.95;;;;;;;;;;3285419;26;20533;-83
2022/07/21 01:26:04;;;;;;;3.92;2.50;;;;;;;;;;5042136;28;20047;-82
2022/07/21 01:28:31;;;;;;;6.15;2.67;;;;;;;;;;5041492;28;20057;-81
2022/07/21 02:09:27;;;;;;;6.63;2.92;;;;;;;;;;4968765;28;20036;-81
2022/07/21 02:19:44;;;;;;;7.80;2.95;;;;;;;;;;4941537;29;20063;-80
2022/07/21 03:18:46;;;;;;;8.15;3.33;;;;;;;;;;5045096;28;20058;-82
2022/07/21 03:21:14;;;;;;;6.38;3.10;;;;;;;;;;5002870;28;20482;-80
2022/07/21 03:23:39;;;;;;;3.78;2.72;;;;;;;;;;5010621;28;20089;-81
2022/07/21 03:26:28;;;;;;;7.47;3.00;;;;;;;;;;5010137;28;20061;-82
2022/07/21 03:33:32;;;;;;;;;;;;;;;;;;;;;
2022/07/21 03:39:47;;;;;;;;;;;;;;;;;;;;;
2022/07/21 03:45:55;;;;;;;11.63;3.90;;;;;;;;;;5021061;28;20056;-82
2022/07/21 03:48:52;;;;;;;10.32;3.63;;;;;;;;;;5026471;28;20033;-80
2022/07/21 03:54:21;;;;;;;10.93;4.18;;;;;;;;;;5018607;28;20034;-81
2022/07/21 03:57:10;;;;;;;;;;;;;;;;;;;;;
2022/07/21 03:59:39;;;;;;;10.90;3.83;;;;;;;;;;5026100;28;20094;-82
2022/07/21 04:02:13;;;;;;;6.97;4.65;;;;;;;;;;5025203;28;20053;-81
2022/07/21 04:04:44;;;;;;;11.75;4.72;;;;;;;;;;5026111;28;20057;-82
2022/07/21 04:25:38;;;;;;;7.78;5.13;;;;;;;;;;5068588;28;20044;-82
2022/07/21 04:52:47;;;;;;;9.65;4.70;;;;;;;;;;4810611;29;20171;-81
2022/07/21 04:55:36;;;;;;;9.75;5.10;;;;;;;;;;4811327;29;20075;-80
2022/07/21 04:58:20;;;;;;;7.20;4.65;;;;;;;;;;4859927;29;20044;-81
2022/07/21 05:00:59;;;;;;;9.98;4.85;;;;;;;;;;4977156;28;20070;-81
2022/07/21 05:38:59;;;;;;;14.48;5.45;;;;;;;;;;5008217;28;20034;-81
2022/07/21 05:45:05;;;;;;;18.83;5.20;;;;;;;;;;5058281;28;20033;-81
2022/07/21 05:48:21;;;;;;;24.98;5.53;;;;;;;;;;5077811;28;20057;-81
2022/07/21 06:17:43;;;;;;;10.95;4.35;;;;;;;;;;5038489;28;20419;-81
2022/07/21 06:20:29;;;;;;;11.45;4.47;;;;;;;;;;5042477;28;20040;-80
2022/07/21 06:24:21;;;;;;;;;;;;;;;;;;;;;
2022/07/21 06:27:18;;;;;;;5.63;4.55;;;;;;;;;;4982948;28;20126;-80
2022/07/21 06:33:26;;;;;;;9.43;4.60;;;;;;;;;;4985682;28;20042;-80
2022/07/21 06:35:52;;;;;;;8.82;4.88;;;;;;;;;;4990695;28;20470;-82
2022/07/21 06:38:20;;;;;;;14.32;4.90;;;;;;;;;;5031283;28;20037;-80
2022/07/21 06:48:34;;;;;;;6.95;4.90;;;;;;;;;;4982348;28;20034;-83
2022/07/21 07:11:52;;;;;;;8.18;4.70;;;;;;;;;;1512793;26;20131;-80
2022/07/21 07:14:18;;;;;;;5.22;4.43;;;;;;;;;;5059175;28;20052;-80
2022/07/21 07:16:44;;;;;;;11.35;4.60;;;;;;;;;;5055440;28;20025;-80
2022/07/21 07:25:24;;;;;;;7.60;4.30;;;;;;;;;;5046648;28;20060;-80
2022/07/21 07:27:51;;;;;;;7.53;4.60;;;;;;;;;;5061150;28;20075;-80
2022/07/21 07:30:17;;;;;;;8.27;4.30;;;;;;;;;;5060829;28;20619;-80
2022/07/21 07:32:43;;;;;;;7.43;4.18;;;;;;;;;;5055203;28;20021;-79
2022/07/21 07:35:10;;;;;;;13.02;4.70;;;;;;;;;;5059215;28;20025;-80
2022/07/21 07:37:37;;;;;;;5.95;3.97;;;;;;;;;;5060900;28;20051;-80
2022/07/21 07:40:38;;;;;;;8.30;4.28;;;;;;;;;;5059658;28;20025;-80
2022/07/21 07:43:03;;;;;;;9.35;4.72;;;;;;;;;;4997315;28;20030;-80
2022/07/21 07:45:56;;;;;;;6.77;4.70;;;;;;;;;;5050069;28;20093;-81
2022/07/21 07:48:34;;;;;;;11.23;4.60;;;;;;;;;;5059694;28;20295;-81
2022/07/21 07:54:25;;;;;;;8.48;4.80;;;;;;;;;;5046398;28;20119;-81
2022/07/21 07:56:50;;;;;;;9.82;4.70;;;;;;;;;;5059938;28;20025;-79
2022/07/21 07:59:26;;;;;;;8.63;4.28;;;;;;;;;;5054506;28;20134;-79
2022/07/21 08:02:53;;;;;;;;;;;;;;;;;;;;;
2022/07/21 08:05:31;;;;;;;10.50;4.70;;;;;;;;;;5053737;28;20029;-81
2022/07/21 08:08:33;;;;;;;13.50;4.53;;;;;;;;;;5058409;28;20028;-80
2022/07/21 08:14:13;;;;;;;9.70;4.75;;;;;;;;;;5055426;28;20035;-80
2022/07/21 08:16:46;;;;;;;7.93;4.38;;;;;;;;;;5059527;28;20032;-80
2022/07/21 08:19:15;;;;;;;;;;;;;;;;;;5064691;28;20047;-80
2022/07/21 08:21:43;;;;;;;14.25;4.40;;;;;;;;;;5063050;28;20380;-80
2022/07/21 08:25:03;;;;;;;12.85;4.95;;;;;;;;;;5064504;28;20055;-80
2022/07/21 08:28:06;;;;;;;7.15;4.53;;;;;;;;;;5063665;28;20032;-80
2022/07/21 08:30:26;;;;;;;6.78;4.90;;;;;;;;;;5060599;28;20033;-81
2022/07/21 08:33:10;;;;;;;8.43;4.65;;;;;;;;;;5060718;28;20029;-78
2022/07/21 08:36:02;;;;;;;6.85;4.18;;;;;;;;;;5063233;28;20025;-78
2022/07/21 08:38:44;;;;;;;8.77;4.63;;;;;;;;;;5064972;28;20021;-80
2022/07/21 08:41:35;;;;;;;9.10;4.55;;;;;;;;;;5055648;28;20024;-79
2022/07/21 08:44:11;;;;;;;7.72;4.57;;;;;;;;;;5064094;28;20036;-80
2022/07/21 08:51:14;;;;;;;;;;;;;;;;;;;;;
2022/07/21 09:00:34;;;;;;;13.27;4.82;;;;;;;;;;5014598;28;20060;-80
2022/07/21 09:03:20;;;;;;;9.02;4.50;;;;;;;;;;5059833;28;20025;-80
2022/07/21 09:06:16;;;;;;;5.97;4.65;;;;;;;;;;5061044;28;20017;-79
2022/07/21 09:08:45;;;;;;;10.25;4.53;;;;;;;;;;5040052;28;20118;-80
2022/07/21 09:11:23;;;;;;;6.65;4.50;;;;;;;;;;5059046;28;20028;-79
2022/07/21 09:14:03;;;;;;;7.75;4.30;;;;;;;;;;5060110;28;20033;-79
2022/07/21 09:16:43;;;;;;;6.65;4.43;;;;;;;;;;5053503;28;20052;-80
2022/07/21 09:19:17;;;;;;;8.93;4.50;;;;;;;;;;5060847;28;20112;-81
2022/07/21 09:21:45;;;;;;;9.02;4.85;;;;;;;;;;5060597;28;20118;-81
2022/07/21 09:24:34;;;;;;;9.27;4.63;;;;;;;;;;5050517;28;20413;-80
2022/07/21 09:27:12;;;;;;;9.77;4.35;;;;;;;;;;5060026;28;20085;-81
2022/07/21 09:29:47;;;;;;;10.93;4.93;;;;;;;;;;5054491;28;20039;-81
2022/07/21 09:32:37;;;;;;;8.95;4.68;;;;;;;;;;5061041;28;20020;-79
2022/07/21 09:35:09;;;;;;;8.85;4.15;;;;;;;;;;5060461;28;20485;-81
2022/07/21 09:37:46;;;;;;;6.03;4.07;;;;;;;;;;5055121;28;20021;-81
2022/07/21 09:40:13;;;;;;;5.05;3.88;;;;;;;;;;5060631;28;20029;-81
2022/07/21 09:42:41;;;;;;;7.18;4.05;;;;;;;;;;5060883;28;20078;-81
2022/07/21 09:45:15;;;;;;;9.30;4.30;;;;;;;;;;5060047;28;20040;-82
2022/07/21 09:47:43;;;;;;;6.28;4.60;;;;;;;;;;5059515;28;20396;-79
2022/07/21 09:50:12;;;;;;;8.95;4.43;;;;;;;;;;5050948;28;20188;-80
2022/07/21 09:56:33;;;;;;;5.65;3.90;;;;;;;;;;5048086;28;20060;-79
2022/07/21 09:59:06;;;;;;;5.78;4.18;;;;;;;;;;5057126;28;20064;-79
2022/07/21 10:01:36;;;;;;;9.02;4.38;;;;;;;;;;5054482;28;20025;-81
2022/07/21 10:04:26;;;;;;;6.70;4.45;;;;;;;;;;5058538;28;20059;-82
2022/07/21 10:06:57;;;;;;;8.05;4.55;;;;;;;;;;5062652;28;20031;-80
2022/07/21 10:09:25;;;;;;;9.60;4.30;;;;;;;;;;5063506;28;20448;-79
2022/07/21 10:12:24;;;;;;;6.47;4.13;;;;;;;;;;5060615;28;20028;-79
2022/07/21 10:18:26;;;;;;;9.30;4.60;;;;;;;;;;5031672;28;20491;-80
2022/07/21 10:21:24;;;;;;;5.45;3.78;;;;;;;;;;5043965;28;20036;-80
2022/07/21 10:24:26;;;;;;;8.68;4.30;;;;;;;;;;5061647;28;20499;-79
2022/07/21 10:27:09;;;;;;;7.20;4.18;;;;;;;;;;5055502;28;20060;-78
2022/07/21 10:29:48;;;;;;;;;;;;;;;;;;5063895;28;20032;-79
2022/07/21 10:32:15;;;;;;;8.77;4.05;;;;;;;;;;5064024;28;19916;-80
2022/07/21 10:34:42;;;;;;;5.60;3.58;;;;;;;;;;5063288;28;20025;-79
2022/07/21 10:37:08;;;;;;;5.03;3.78;;;;;;;;;;5063591;28;20025;-80
2022/07/21 10:39:34;;;;;;;6.95;4.00;;;;;;;;;;5064307;28;20029;-80
2022/07/21 10:42:01;;;;;;;7.90;3.70;;;;;;;;;;5063904;28;20025;-80
2022/07/21 10:44:27;;;;;;;8.25;4.07;;;;;;;;;;5062757;28;20032;-80
2022/07/21 10:47:09;;;;;;;6.65;3.70;;;;;;;;;;5063101;28;20025;-81
2022/07/21 10:54:01;;;;;;;5.47;3.13;;;;;;;;;;5045878;28;20029;-81
2022/07/21 10:56:45;;;;;;;5.68;3.10;;;;;;;;;;5016254;28;20037;-81
2022/07/21 11:02:33;;;;;;;5.63;3.15;;;;;;;;;;5054691;28;20125;-80
2022/07/21 11:05:04;;;;;;;;;;;;;;;;;;5061671;28;20544;-80
2022/07/21 11:08:09;;;;;;;8.00;3.38;;;;;;;;;;5053904;28;19908;-78
2022/07/21 11:10:36;;;;;;;11.00;3.10;;;;;;;;;;5063881;28;20106;-79
2022/07/21 11:13:02;;;;;;;8.52;3.10;;;;;;;;;;5062919;28;20029;-80
2022/07/21 11:15:46;;;;;;;6.60;3.38;;;;;;;;;;5058761;28;20032;-81
2022/07/21 11:18:19;;;;;;;3.10;2.53;;;;;;;;;;5061595;28;20083;-80
2022/07/21 11:21:24;;;;;;;4.93;2.60;;;;;;;;;;5065576;22;20044;-80
2022/07/21 11:24:23;;;;;;;7.40;2.88;;;;;;;;;;4986043;28;20110;-82
2022/07/21 11:27:25;;;;;;;7.80;2.97;;;;;;;;;;4943450;28;20064;-82
2022/07/21 11:30:32;;;;;;;7.75;3.13;;;;;;;;;;5062044;28;20025;-81
2022/07/21 11:32:57;;;;;;;6.55;2.80;;;;;;;;;;5064823;28;20036;-82
2022/07/21 11:43:04;;;;;;;12.88;4.00;;;;;;;;;;4952313;28;20116;-80
2022/07/21 11:52:30;;;;;;;7.57;3.42;;;;;;;;;;5065041;28;20068;-80
2022/07/21 11:55:03;;;;;;;7.80;3.05;;;;;;;;;;5067712;28;20088;-83
2022/07/21 11:57:46;;;;;;;6.27;3.37;;;;;;;;;;5067358;28;20459;-82
2022/07/21 12:00:31;;;;;;;4.97;3.05;;;;;;;;;;5058987;28;20064;-83
2022/07/21 12:03:10;;;;;;;8.38;3.25;;;;;;;;;;5085583;28;20020;-81
2022/07/21 12:06:19;;;;;;;11.40;4.40;;;;;;;;;;5087349;28;20025;-82
2022/07/21 12:08:45;;;;;;;4.63;3.05;;;;;;;;;;5060753;28;20036;-83
2022/07/21 12:11:16;;;;;;;11.75;3.50;;;;;;;;;;5069005;28;20059;-83
2022/07/21 12:14:14;;;;;;;7.55;3.47;;;;;;;;;;5086503;28;20050;-81
2022/07/21 12:17:33;;;;;;;7.97;3.30;;;;;;;;;;5051578;28;20066;-82
2022/07/21 12:20:43;;;;;;;4.70;3.08;;;;;;;;;;5055179;28;20115;-81
2022/07/21 12:23:46;;;;;;;5.63;2.78;;;;;;;;;;5085949;28;20028;-81
2022/07/21 12:26:22;;;;;;;8.18;3.15;;;;;;;;;;5019093;28;20041;-81
2022/07/21 12:29:05;;;;;;;;;;;;;;;;;;;;;
2022/07/21 12:32:33;;;;;;;6.15;2.65;;;;;;;;;;5087475;28;20104;-82
2022/07/21 12:35:46;;;;;;;;;;;;;;;;;;;;;
2022/07/21 12:38:58;;;;;;;8.75;3.08;;;;;;;;;;5084487;28;20028;-83
2022/07/21 12:41:26;;;;;;;5.18;2.85;;;;;;;;;;5064392;28;20032;-81
2022/07/21 12:44:18;;;;;;;5.03;3.03;;;;;;;;;;5085697;28;20109;-81
2022/07/21 12:57:04;;;;;;;4.60;2.88;;;;;;;;;;5019204;28;20041;-81
2022/07/21 12:59:59;;;;;;;5.13;3.20;;;;;;;;;;5060559;28;20040;-81
2022/07/21 13:03:15;;;;;;;;;;;;;;;;;;;;;
2022/07/21 13:06:40;;;;;;;7.10;2.72;;;;;;;;;;5085805;28;20088;-81
2022/07/21 13:40:44;;;;;;;3.97;2.92;;;;;;;;;;5043262;28;20490;-82
2022/07/21 13:54:11;;;;;;;5.30;2.97;;;;;;;;;;4966936;29;20042;-82
2022/07/21 13:59:43;;;;;;;6.55;3.28;;;;;;;;;;4966615;28;20043;-81
2022/07/21 14:03:30;;;;;;;;;;;;;;;;;;;;;
2022/07/21 14:06:10;;;;;;;4.88;3.28;;;;;;;;;;4871126;29;20093;-80
2022/07/21 14:44:07;;;;;;;5.65;3.13;;;;;;;;;;4983152;22;21546;-79
2022/07/21 14:47:35;;;;;;;8.80;4.00;;;;;;;;;;4976431;28;20085;-81
2022/07/21 14:50:54;;;;;;;8.63;3.60;;;;;;;;;;4967650;28;20070;-83
2022/07/21 14:54:04;;;;;;;5.97;3.28;;;;;;;;;;4978666;28;20118;-82
2022/07/21 14:57:53;;;;;;;;;;;;;;;;;;;;;
2022/07/21 15:08:27;;;;;;;7.40;3.85;;;;;;;;;;5043748;28;20053;-81
2022/07/21 15:14:07;;;;;;;;;;;;;;;;;;;;;
2022/07/21 15:17:23;;;;;;;5.97;3.80;;;;;;;;;;4987847;28;20103;-82
2022/07/21 15:27:18;;;;;;;5.18;3.63;;;;;;;;;;4952965;28;20103;-80
2022/07/21 15:37:41;;;;;;;;;;;;;;;;;;;;;
2022/07/21 15:40:36;;;;;;;4.72;3.70;;;;;;;;;;5068897;28;20052;-81
2022/07/21 15:43:03;;;;;;;4.35;3.60;;;;;;;;;;5052194;28;20040;-82
2022/07/21 15:45:54;;;;;;;5.38;3.92;;;;;;;;;;5052386;28;20028;-83
2022/07/21 15:48:30;;;;;;;5.43;3.75;;;;;;;;;;5051020;28;20489;-83
2022/07/21 15:51:59;;;;;;;4.97;4.13;;;;;;;;;;5049980;28;20025;-82
2022/07/21 15:54:46;;;;;;;;;;;;;;;;;;;;;
2022/07/21 15:57:47;;;;;;;7.78;4.53;;;;;;;;;;5067357;28;20076;-82
2022/07/21 16:00:13;;;;;;;10.98;5.20;;;;;;;;;;5040957;28;20033;-83
2022/07/21 16:02:40;;;;;;;13.00;5.90;;;;;;;;;;5067457;28;20029;-82
2022/07/21 16:05:11;;;;;;;10.52;6.18;;;;;;;;;;5050057;28;20131;-82
2022/07/21 16:07:36;;;;;;;8.63;4.85;;;;;;;;;;5067504;28;20094;-83
2022/07/21 16:10:03;;;;;;;11.95;5.10;;;;;;;;;;5068559;28;20028;-82
2022/07/21 16:12:28;;;;;;;12.40;5.35;;;;;;;;;;5067166;28;20437;-82
2022/07/21 16:14:53;;;;;;;9.23;4.67;;;;;;;;;;5066348;28;20089;-81
2022/07/21 16:17:19;;;;;;;8.20;4.93;;;;;;;;;;5063204;28;20580;-81
2022/07/21 16:19:45;;;;;;;7.13;4.80;;;;;;;;;;5046086;28;20329;-81
2022/07/21 16:22:10;;;;;;;6.78;4.93;;;;;;;;;;5064550;28;20083;-82
2022/07/21 16:24:36;;;;;;;8.93;4.82;;;;;;;;;;5066291;28;20039;-82
2022/07/21 16:27:02;;;;;;;5.93;4.38;;;;;;;;;;5066010;28;20103;-82
2022/07/21 16:29:27;;;;;;;6.90;4.70;;;;;;;;;;5065102;28;20058;-81
2022/07/21 16:31:58;;;;;;;7.60;5.05;;;;;;;;;;5064789;28;20466;-80
2022/07/21 16:34:23;;;;;;;5.68;5.05;;;;;;;;;;5065646;28;20021;-80
2022/07/21 16:36:49;;;;;;;7.80;4.53;;;;;;;;;;5063005;28;20035;-80
2022/07/21 16:39:14;;;;;;;8.53;5.40;;;;;;;;;;5063061;28;20025;-81
2022/07/21 16:41:39;;;;;;;5.85;4.32;;;;;;;;;;5062610;28;20056;-81
2022/07/21 16:44:15;;;;;;;6.35;4.28;;;;;;;;;;5063666;28;20039;-82
2022/07/21 16:46:41;;;;;;;7.05;4.40;;;;;;;;;;5063911;28;20052;-81
2022/07/21 16:49:17;;;;;;;6.05;4.30;;;;;;;;;;5047403;28;20025;-83
2022/07/21 16:51:57;;;;;;;6.57;4.63;;;;;;;;;;5046858;28;20032;-81
2022/07/21 16:54:25;;;;;;;7.35;4.53;;;;;;;;;;5045894;28;20024;-83
2022/07/21 16:56:53;;;;;;;6.40;4.80;;;;;;;;;;5045419;28;20032;-83
2022/07/21 17:06:28;;;;;;;9.40;5.78;;;;;;;;;;4991169;28;20074;-82
2022/07/21 17:13:09;;;;;;;;;;;;;;;;;;;;;
2022/07/21 17:23:06;;;;;;;6.57;4.63;;;;;;;;;;4867140;29;20033;-82
2022/07/21 17:29:24;;;;;;;6.13;4.15;;;;;;;;;;4872600;29;20033;-81
2022/07/21 17:35:50;;;;;;;9.05;4.47;;;;;;;;;;4924189;29;20091;-82
2022/07/21 17:56:04;;;;;;;;;;;;;;;;;;;;;
2022/07/21 18:06:24;;;;;;;;;;;;;;;;;;;;;
2022/07/21 18:23:14;;;;;;;6.95;4.30;;;;;;;;;;4914017;29;20071;-83
2022/07/21 18:26:36;;;;;;;;;;;;;;;;;;;;;
2022/07/21 18:34:21;;;;;;;;;;;;;;;;;;;;;
2022/07/21 18:36:26;;;;;;;6.82;4.15;;;;;;;;;;4911318;29;20029;-82
2022/07/21 18:59:41;;;;;;;6.95;4.47;;;;;;;;;;4970064;28;20058;-81
2022/07/21 19:14:26;;;;;;;6.20;4.85;;;;;;;;;;4945883;29;20068;-81
2022/07/21 19:28:15;;;;;;;;;;;;;;;;;;;;;
2022/07/21 19:31:50;;;;;;;;;;;;;;;;;;;;;
2022/07/21 19:34:37;;;;;;;;;;;;;;;;;;4909928;29;20166;-80
2022/07/21 19:41:26;;;;;;;7.07;4.97;;;;;;;;;;4893284;29;20044;-81
2022/07/21 19:44:37;;;;;;;;;;;;;;;;;;;;;
2022/07/21 20:11:35;;;;;;;7.75;5.70;;;;;;;;;;4983880;28;20068;-82
2022/07/21 20:14:41;;;;;;;8.27;5.95;;;;;;;;;;5026229;28;20056;-80
2022/07/21 20:18:12;;;;;;;;;;;;;;;;;;;;;
2022/07/21 20:21:04;;;;;;;6.78;6.00;;;;;;;;;;5037709;28;20125;-81
2022/07/21 20:23:50;;;;;;;10.20;6.13;;;;;;;;;;5026516;28;20056;-79
2022/07/21 20:26:18;;;;;;;6.88;5.53;;;;;;;;;;5027104;28;20617;-80
2022/07/21 20:29:12;;;;;;;9.10;5.78;;;;;;;;;;5026337;28;20044;-81
2022/07/21 20:32:17;;;;;;;;;;;;;;;;;;;;;
2022/07/21 20:34:56;;;;;;;12.30;6.25;;;;;;;;;;5046110;28;20093;-81
2022/07/21 20:37:29;;;;;;;11.23;6.32;;;;;;;;;;5027844;28;20096;-82
2022/07/21 20:39:54;;;;;;;8.57;5.50;;;;;;;;;;5046245;28;20085;-83
2022/07/21 20:42:33;;;;;;;7.68;5.22;;;;;;;;;;5031836;28;20139;-82
2022/07/21 20:45:29;;;;;;;9.18;6.00;;;;;;;;;;5046622;28;20044;-83
2022/07/21 20:48:02;;;;;;;9.00;5.80;;;;;;;;;;5032543;28;20033;-81
2022/07/21 20:50:37;;;;;;;;;;;;;;;;;;5031245;28;20522;-81
2022/07/21 20:53:29;;;;;;;8.20;5.97;;;;;;;;;;5031389;28;19976;-81
2022/07/21 20:56:03;;;;;;;7.85;5.72;;;;;;;;;;5048817;28;20422;-82
2022/07/21 20:58:28;;;;;;;;;;;;;;;;;;5049483;28;20474;-82
2022/07/21 21:00:54;;;;;;;8.60;5.77;;;;;;;;;;5047654;28;20010;-81
2022/07/21 21:03:37;;;;;;;8.45;6.10;;;;;;;;;;5029661;28;20643;-81
2022/07/21 21:06:05;;;;;;;7.85;6.10;;;;;;;;;;5029365;28;20021;-83
2022/07/21 21:12:26;;;;;;;8.07;6.03;;;;;;;;;;5042265;28;20036;-81
2022/07/21 21:18:25;;;;;;;8.85;6.00;;;;;;;;;;5035673;28;20037;-81
2022/07/21 21:21:03;;;;;;;7.95;6.20;;;;;;;;;;5046776;28;20085;-82
2022/07/21 21:23:41;;;;;;;;;;;;;;;;;;;;;
2022/07/21 21:26:40;;;;;;;7.07;5.90;;;;;;;;;;5046661;28;20109;-83
2022/07/21 21:29:08;;;;;;;8.68;6.40;;;;;;;;;;5044716;28;20040;-82
2022/07/21 21:31:55;;;;;;;;;;;;;;;;;;;;;
2022/07/21 21:34:42;;;;;;;9.07;6.20;;;;;;;;;;5047640;28;20049;-82
2022/07/21 21:37:29;;;;;;;8.25;6.03;;;;;;;;;;5029237;28;20025;-81
2022/07/21 21:40:01;;;;;;;8.40;6.63;;;;;;;;;;5028399;28;20446;-80
2022/07/21 21:42:36;;;;;;;7.80;6.57;;;;;;;;;;5024197;28;20042;-80
2022/07/21 21:45:28;;;;;;;8.13;5.88;;;;;;;;;;5041897;28;20029;-81
2022/07/21 21:48:02;;;;;;;8.95;6.60;;;;;;;;;;5023715;28;20068;-81
2022/07/21 22:08:19;;;;;;;;;;;;;;;;;;;;;
2022/07/21 22:11:02;;;;;;;9.57;6.40;;;;;;;;;;4954006;28;20101;-82
2022/07/21 22:13:32;;;;;;;11.70;7.20;;;;;;;;;;5006431;28;20041;-82
2022/07/21 22:19:14;;;;;;;9.95;6.90;;;;;;;;;;5036009;28;20037;-82
2022/07/21 22:22:32;;;;;;;8.02;6.85;;;;;;;;;;5046833;28;20040;-83
2022/07/21 22:25:54;;;;;;;;;;;;;;;;;;;;;
2022/07/21 22:31:32;;;;;;;11.05;6.70;;;;;;;;;;5239084;22;20052;-82
2022/07/21 22:35:27;;;;;;;;;;;;;;;;;;;;;
2022/07/21 22:43:25;;;;;;;8.18;6.45;;;;;;;;;;4836535;26;20041;-82
2022/07/21 22:47:04;;;;;;;;;;;;;;;;;;;;;
2022/07/21 22:55:17;;;;;;;;;;;;;;;;;;;;;
2022/07/21 23:01:38;;;;;;;8.82;6.45;;;;;;;;;;5041943;28;20024;-80
2022/07/21 23:04:08;;;;;;;7.72;6.32;;;;;;;;;;5043118;28;20026;-82
2022/07/21 23:07:09;;;;;;;;;;;;;;;;;;;;;
2022/07/21 23:14:03;;;;;;;;;;;;;;;;;;;;;
2022/07/21 23:25:24;;;;;;;7.93;6.18;;;;;;;;;;5041081;28;20518;-82
2022/07/21 23:27:54;;;;;;;8.20;6.57;;;;;;;;;;5042886;28;20024;-81
2022/07/21 23:30:36;;;;;;;8.05;6.60;;;;;;;;;;5043468;28;20021;-81
2022/07/21 23:33:13;;;;;;;10.52;6.32;;;;;;;;;;5027495;28;20032;-81
2022/07/21 23:36:13;;;;;;;9.63;7.10;;;;;;;;;;5025617;28;20021;-82
2022/07/21 23:42:17;;;;;;;8.32;6.68;;;;;;;;;;4927652;29;20028;-81
2022/07/21 23:45:11;;;;;;;;;;;;;;;;;;;;;
2022/07/21 23:47:39;;;;;;;9.77;6.97;;;;;;;;;;4943363;29;20091;-81
2022/07/21 23:50:23;;;;;;;10.07;7.03;;;;;;;;;;4942001;29;20107;-79
2022/07/21 23:52:53;;;;;;;7.90;6.72;;;;;;;;;;5035419;28;20026;-79
2022/07/21 23:55:21;;;;;;;9.88;7.10;;;;;;;;;;5044086;28;20088;-79
2022/07/21 23:58:13;;;;;;;8.23;7.20;;;;;;;;;;5043878;28;20012;-78
